Time;durP1;ratioP1;P1;durP2;ratioP2;P2;SDS_P1;SDS_P2;PMS_P1;PMS_P2;Temp;Humidity;BMP_temperature;BMP_pressure;BME280_temperature;BME280_humidity;BME280_pressure;Samples;Min_cycle;Max_cycle;Signal;HPM_P1;HPM_P2
2023/11/09 06:09:51;;;;;;;2.35;1.63;;;11.30;53.50;;;;;;6075135;29;20152;-75
2023/11/09 06:12:56;;;;;;;1.77;0.95;;;11.20;53.50;;;;;;6074860;29;20043;-74
2023/11/09 06:16:02;;;;;;;2.50;1.88;;;11.20;53.60;;;;;;6074173;29;20163;-74
2023/11/09 06:19:15;;;;;;;1.33;0.95;;;11.20;53.50;;;;;;6073958;29;20165;-69
2023/11/09 06:22:19;;;;;;;5.65;1.63;;;11.30;53.50;;;;;;6075522;29;20037;-68
2023/11/09 06:25:24;;;;;;;5.30;1.90;;;11.20;53.50;;;;;;6074618;29;20378;-68
2023/11/09 06:28:26;;;;;;;4.22;1.52;;;11.30;53.60;;;;;;6075737;29;20029;-75
2023/11/09 06:31:37;;;;;;;4.90;1.35;;;11.20;53.60;;;;;;6075139;29;20055;-74
2023/11/09 06:34:41;;;;;;;4.03;1.52;;;11.30;53.70;;;;;;6092253;29;20040;-76
2023/11/09 06:37:45;;;;;;;1.73;1.08;;;11.40;53.70;;;;;;6086533;29;20068;-76
2023/11/09 06:40:50;;;;;;;7.35;1.48;;;11.50;53.70;;;;;;6074469;29;20059;-77
2023/11/09 06:43:53;;;;;;;2.13;1.33;;;11.60;53.70;;;;;;6076772;29;20045;-79
2023/11/09 06:46:58;;;;;;;3.15;1.55;;;11.70;53.90;;;;;;6058855;29;20033;-78
2023/11/09 06:50:11;;;;;;;1.92;1.25;;;11.80;53.90;;;;;;6056775;29;20112;-76
2023/11/09 06:53:20;;;;;;;5.50;1.25;;;11.80;53.80;;;;;;6051572;29;20044;-76
2023/11/09 06:56:24;;;;;;;;;;;11.90;53.80;;;;;;6040493;29;20099;-75
2023/11/09 07:06:22;;;;;;;3.38;1.52;;;12.00;53.60;;;;;;6114868;29;20067;-76
2023/11/09 07:09:25;;;;;;;7.95;1.70;;;12.00;53.60;;;;;;6119445;29;20051;-70
2023/11/09 12:21:02;;;;;;;8.98;3.13;;;12.60;67.10;;;;;;6762756;23;20441;-72
2023/11/09 12:24:12;;;;;;;6.28;2.30;;;12.60;67.00;;;;;;6118916;29;20048;-73
2023/11/09 12:27:16;;;;;;;11.13;4.30;;;12.60;66.70;;;;;;6119845;29;20115;-70
2023/11/09 12:30:18;;;;;;;5.50;3.22;;;12.70;66.50;;;;;;6120693;29;20150;-70
2023/11/09 12:33:21;;;;;;;8.32;2.33;;;12.60;66.50;;;;;;6103621;29;20448;-75
2023/11/09 12:39:40;;;;;;;10.57;2.42;;;12.70;66.50;;;;;;5688038;26;20749;-72
2023/11/09 12:42:44;;;;;;;3.58;1.70;;;12.70;66.40;;;;;;6119893;29;20038;-72
2023/11/09 12:46:15;;;;;;;11.55;4.05;;;12.70;66.20;;;;;;6118943;29;20024;-71
2023/11/09 12:49:33;;;;;;;9.93;3.75;;;12.70;66.40;;;;;;6090570;29;20044;-71
2023/11/09 12:52:37;;;;;;;8.48;3.45;;;12.70;66.60;;;;;;6102054;29;20043;-73
2023/11/09 12:55:41;;;;;;;9.00;3.83;;;12.70;66.80;;;;;;6102268;29;20051;-74
2023/11/09 12:58:46;;;;;;;10.18;3.03;;;12.70;66.90;;;;;;6118845;29;20099;-76
2023/11/09 13:02:14;;;;;;;7.45;2.92;;;12.70;66.80;;;;;;6119577;29;20042;-76
2023/11/09 13:05:32;;;;;;;14.70;5.82;;;12.70;66.90;;;;;;6115915;29;20039;-74
2023/11/09 13:08:43;;;;;;;7.60;3.67;;;12.70;67.10;;;;;;6119165;29;20047;-76
2023/11/09 13:11:46;;;;;;;6.22;2.92;;;12.60;67.10;;;;;;6117364;29;20617;-76
2023/11/09 13:15:10;;;;;;;9.02;2.45;;;12.60;67.20;;;;;;6103705;29;20706;-76
2023/11/09 13:18:16;;;;;;;4.80;2.65;;;12.60;67.40;;;;;;6121133;29;20043;-76
2023/11/09 13:21:22;;;;;;;8.82;3.00;;;12.60;67.40;;;;;;6121191;29;20036;-77
2023/11/09 13:24:28;;;;;;;6.93;3.03;;;12.60;67.30;;;;;;6091217;29;20032;-76
2023/11/09 13:27:30;;;;;;;4.22;2.63;;;12.70;67.30;;;;;;6127261;29;20043;-75
2023/11/09 13:30:33;;;;;;;12.88;3.40;;;12.70;67.30;;;;;;6104636;29;20079;-75
2023/11/09 13:33:39;;;;;;;7.53;3.50;;;12.70;67.50;;;;;;6103206;29;20058;-75
2023/11/09 13:37:26;;;;;;;6.20;3.55;;;12.60;67.50;;;;;;6120304;29;20106;-76
2023/11/09 13:43:49;;;;;;;5.63;3.50;;;12.60;68.00;;;;;;6117464;29;20048;-75
2023/11/09 13:46:52;;;;;;;9.50;4.47;;;12.60;68.20;;;;;;6101924;29;20123;-76
2023/11/09 13:49:57;;;;;;;8.70;3.88;;;12.70;68.20;;;;;;6094328;29;20151;-76
2023/11/09 13:53:01;;;;;;;6.82;3.22;;;12.70;68.90;;;;;;6098245;29;20453;-76
2023/11/09 13:59:12;;;;;;;7.47;2.97;;;12.80;68.10;;;;;;6098242;29;20493;-77
2023/11/09 14:02:17;;;;;;;6.55;3.00;;;12.80;68.00;;;;;;6098132;29;20055;-75
2023/11/09 14:05:24;;;;;;;3.30;2.22;;;12.90;67.90;;;;;;6098146;29;20032;-76
2023/11/09 14:08:27;;;;;;;6.25;2.63;;;12.90;67.80;;;;;;6097917;29;20039;-75
2023/11/09 14:11:31;;;;;;;4.75;2.55;;;12.80;67.50;;;;;;6097925;29;20538;-75
2023/11/09 14:14:49;;;;;;;9.98;2.92;;;12.80;67.70;;;;;;6082578;29;20060;-76
2023/11/09 14:18:26;;;;;;;9.55;2.55;;;12.80;67.70;;;;;;6097839;29;20036;-75
2023/11/09 14:21:23;;;;;;;5.88;2.75;;;12.80;67.70;;;;;;6086797;29;20066;-75
2023/11/09 14:24:45;;;;;;;6.93;3.45;;;12.70;67.80;;;;;;6100854;29;20058;-75
2023/11/09 14:27:52;;;;;;;5.93;3.25;;;12.70;67.80;;;;;;6097715;29;20203;-75
2023/11/09 14:30:56;;;;;;;7.07;2.92;;;12.70;67.90;;;;;;6080151;29;20093;-75
2023/11/09 14:34:01;;;;;;;6.18;3.10;;;12.80;67.80;;;;;;6096951;29;20051;-76
2023/11/09 14:37:03;;;;;;;8.95;3.38;;;12.70;67.70;;;;;;6096948;29;20040;-75
2023/11/09 14:40:13;;;;;;;6.47;2.45;;;12.70;67.90;;;;;;6096453;29;20393;-76
2023/11/09 14:43:19;;;;;;;9.70;2.42;;;12.60;68.00;;;;;;6097098;29;20028;-74
2023/11/09 14:46:23;;;;;;;5.97;2.60;;;12.60;68.20;;;;;;6077649;29;20469;-75
2023/11/09 14:49:34;;;;;;;8.82;2.45;;;12.70;68.30;;;;;;6120502;29;20066;-75
2023/11/09 14:52:46;;;;;;;11.65;3.42;;;12.70;68.30;;;;;;6120442;29;20044;-75
2023/11/09 14:55:58;;;;;;;4.70;1.95;;;12.70;68.20;;;;;;6118294;29;20047;-76
2023/11/09 14:59:04;;;;;;;10.40;3.03;;;12.80;68.10;;;;;;6120478;29;20039;-75
2023/11/09 15:02:07;;;;;;;11.23;3.38;;;12.80;68.10;;;;;;6103631;29;20067;-76
2023/11/09 15:05:12;;;;;;;8.75;3.63;;;12.80;68.00;;;;;;6119985;29;20054;-75
2023/11/09 15:08:15;;;;;;;7.55;3.22;;;12.70;68.10;;;;;;6118925;29;20159;-75
2023/11/09 15:11:20;;;;;;;11.63;3.70;;;12.80;68.20;;;;;;6121886;29;20114;-74
2023/11/09 15:14:23;;;;;;;11.23;2.38;;;12.80;68.30;;;;;;6106721;29;20114;-74
2023/11/09 15:17:27;;;;;;;8.85;2.92;;;12.80;68.20;;;;;;6106568;29;20039;-75
2023/11/09 15:20:31;;;;;;;8.90;2.63;;;12.90;68.20;;;;;;6122803;29;20126;-76
2023/11/09 15:23:35;;;;;;;11.43;4.25;;;13.00;68.30;;;;;;6123617;29;20054;-76
2023/11/09 15:26:41;;;;;;;8.95;3.25;;;13.10;68.20;;;;;;6123508;29;20113;-75
2023/11/09 15:29:45;;;;;;;7.83;2.63;;;13.20;67.80;;;;;;6105795;29;20095;-74
2023/11/09 15:32:50;;;;;;;5.18;2.33;;;13.30;67.40;;;;;;6105620;29;20139;-75
2023/11/09 15:35:54;;;;;;;4.82;2.13;;;13.30;67.10;;;;;;6105164;29;20151;-74
2023/11/09 15:38:57;;;;;;;7.85;3.17;;;13.40;66.90;;;;;;6106899;29;20047;-73
2023/11/09 15:42:00;;;;;;;4.80;2.88;;;13.40;66.70;;;;;;6122390;29;20054;-75
2023/11/09 15:45:11;;;;;;;4.50;2.50;;;13.40;66.70;;;;;;6122153;29;20024;-75
2023/11/09 15:48:13;;;;;;;6.10;2.47;;;13.30;66.70;;;;;;6104783;29;20126;-76
2023/11/09 15:51:19;;;;;;;2.58;1.90;;;13.30;66.40;;;;;;6122164;29;20458;-74
2023/11/09 15:54:24;;;;;;;5.70;2.95;;;13.30;66.40;;;;;;6122258;29;20106;-74
2023/11/09 15:57:38;;;;;;;5.97;3.17;;;13.20;66.40;;;;;;6121898;29;20038;-76
2023/11/09 16:00:45;;;;;;;9.70;2.88;;;13.10;66.50;;;;;;6121541;29;20035;-74
2023/11/09 16:03:53;;;;;;;5.13;2.55;;;13.10;66.70;;;;;;6122101;29;20093;-74
2023/11/09 16:06:56;;;;;;;6.88;3.15;;;13.00;66.90;;;;;;6120571;29;20048;-75
2023/11/09 16:09:59;;;;;;;8.80;3.22;;;12.90;67.00;;;;;;6120934;29;20180;-74
2023/11/09 16:13:04;;;;;;;6.25;3.58;;;12.90;67.10;;;;;;6121652;29;20415;-75
2023/11/09 16:16:10;;;;;;;8.48;3.38;;;12.90;67.30;;;;;;6125362;29;20102;-72
2023/11/09 16:19:13;;;;;;;5.57;3.53;;;12.80;68.10;;;;;;6131774;29;20353;-75
2023/11/09 16:22:17;;;;;;;3.17;2.00;;;12.80;67.40;;;;;;6123435;29;20126;-75
2023/11/09 16:25:22;;;;;;;8.20;3.17;;;12.80;67.40;;;;;;6120530;29;20036;-74
2023/11/09 16:28:30;;;;;;;6.15;2.58;;;12.70;67.50;;;;;;6121373;29;20393;-74
2023/11/09 16:31:32;;;;;;;9.90;3.40;;;12.70;67.50;;;;;;6119669;29;20405;-74
2023/11/09 16:34:38;;;;;;;7.88;3.58;;;12.70;67.60;;;;;;6121343;29;20409;-74
2023/11/09 16:37:44;;;;;;;16.05;5.13;;;12.70;67.60;;;;;;6121316;29;20046;-75
2023/11/09 16:40:47;;;;;;;11.13;4.45;;;12.70;67.60;;;;;;6119312;29;20433;-76
2023/11/09 16:43:50;;;;;;;10.50;3.75;;;12.70;67.60;;;;;;6121372;29;20087;-74
2023/11/09 16:46:52;;;;;;;7.97;3.88;;;12.80;67.60;;;;;;6112541;29;20113;-75
2023/11/09 16:49:56;;;;;;;13.38;4.22;;;12.80;67.50;;;;;;6120768;29;20039;-73
2023/11/09 16:52:59;;;;;;;11.80;3.55;;;12.80;67.40;;;;;;6103939;29;20069;-76
2023/11/09 16:56:02;;;;;;;3.13;2.00;;;12.90;67.30;;;;;;6104087;29;20903;-74
2023/11/09 16:59:04;;;;;;;5.22;2.90;;;12.90;67.10;;;;;;6121147;29;20027;-75
2023/11/09 17:02:07;;;;;;;23.42;7.03;;;12.90;67.10;;;;;;6120468;29;20417;-76
2023/11/09 17:05:10;;;;;;;8.00;3.63;;;12.80;67.10;;;;;;6103454;29;20109;-75
2023/11/09 17:08:12;;;;;;;13.35;4.40;;;12.80;67.20;;;;;;6104571;29;20358;-74
2023/11/09 17:11:15;;;;;;;6.03;3.22;;;12.80;67.30;;;;;;6120601;29;20043;-74
2023/11/09 17:14:17;;;;;;;11.23;4.22;;;12.70;67.40;;;;;;6106097;29;20039;-75
2023/11/09 17:17:20;;;;;;;17.77;6.63;;;12.60;67.60;;;;;;6090601;29;20047;-75
2023/11/09 17:20:22;;;;;;;12.45;5.80;;;12.60;67.70;;;;;;6105471;29;20035;-74
2023/11/09 17:23:25;;;;;;;17.00;6.28;;;12.50;67.90;;;;;;6105432;29;20040;-75
2023/11/09 17:26:29;;;;;;;10.20;4.10;;;12.50;68.10;;;;;;6121927;29;20561;-75
2023/11/09 17:29:31;;;;;;;12.55;4.82;;;12.40;68.10;;;;;;6103754;29;20039;-75
2023/11/09 17:32:35;;;;;;;11.50;4.50;;;12.40;68.10;;;;;;6104426;29;20058;-75
2023/11/09 17:35:37;;;;;;;6.63;3.80;;;12.40;68.10;;;;;;6121489;29;20051;-74
2023/11/09 17:38:40;;;;;;;9.07;4.18;;;12.40;68.10;;;;;;6121438;29;20039;-75
2023/11/09 17:41:43;;;;;;;7.68;3.90;;;12.40;68.20;;;;;;6103856;29;20039;-75
2023/11/09 17:44:46;;;;;;;8.77;5.05;;;12.40;68.20;;;;;;6121244;29;20521;-75
2023/11/09 17:47:49;;;;;;;12.05;5.40;;;12.40;68.30;;;;;;6118330;29;20039;-73
2023/11/09 17:50:51;;;;;;;26.80;8.35;;;12.40;68.30;;;;;;6119758;29;20052;-77
2023/11/09 17:53:54;;;;;;;21.38;6.57;;;12.40;68.30;;;;;;6120855;29;20051;-75
2023/11/09 17:56:58;;;;;;;10.25;4.47;;;12.40;68.20;;;;;;6119139;29;20038;-75
2023/11/09 18:00:00;;;;;;;15.23;5.72;;;12.50;68.10;;;;;;6120771;29;20038;-73
2023/11/09 18:03:10;;;;;;;6.68;4.32;;;12.50;68.10;;;;;;6104287;29;20095;-75
2023/11/09 18:06:14;;;;;;;13.85;4.20;;;12.60;68.00;;;;;;6103720;29;20032;-74
2023/11/09 18:09:17;;;;;;;17.02;5.97;;;12.60;67.80;;;;;;6119265;29;20429;-75
2023/11/09 18:12:19;;;;;;;12.93;6.03;;;12.60;67.80;;;;;;6119244;29;20039;-75
2023/11/09 18:15:23;;;;;;;16.73;5.97;;;12.60;67.80;;;;;;6120843;29;20043;-75
2023/11/09 18:18:27;;;;;;;16.25;5.95;;;12.60;67.80;;;;;;6120401;29;20028;-75
2023/11/09 18:21:34;;;;;;;14.63;5.80;;;12.50;68.00;;;;;;6120769;29;20115;-74
2023/11/09 18:24:39;;;;;;;13.55;5.18;;;12.50;68.10;;;;;;6120899;29;20452;-74
2023/11/09 18:27:44;;;;;;;17.48;6.20;;;12.40;68.20;;;;;;6120350;29;20138;-74
2023/11/09 18:30:49;;;;;;;16.08;6.97;;;12.40;68.40;;;;;;6120240;29;20039;-73
2023/11/09 18:33:50;;;;;;;17.73;6.78;;;12.40;68.50;;;;;;6119628;29;20757;-75
2023/11/09 18:36:53;;;;;;;18.50;7.95;;;12.40;68.70;;;;;;6122452;29;20059;-74
2023/11/09 18:39:54;;;;;;;9.13;4.07;;;12.30;68.70;;;;;;6124671;29;20031;-74
2023/11/09 18:42:58;;;;;;;7.85;4.50;;;12.30;68.90;;;;;;6124265;29;20031;-74
2023/11/09 18:46:01;;;;;;;8.70;4.78;;;12.30;68.90;;;;;;6124628;29;20035;-74
2023/11/09 18:49:04;;;;;;;9.27;4.95;;;12.30;68.80;;;;;;6107485;29;20051;-74
2023/11/09 18:52:07;;;;;;;8.60;4.10;;;12.40;68.80;;;;;;6106547;29;20485;-75
2023/11/09 18:55:10;;;;;;;11.32;3.83;;;12.40;68.70;;;;;;6107310;29;20039;-74
2023/11/09 18:58:12;;;;;;;7.25;4.40;;;12.40;68.70;;;;;;6124227;29;20066;-74
2023/11/09 19:01:14;;;;;;;11.07;5.20;;;12.40;68.70;;;;;;6107522;29;20072;-75
2023/11/09 19:04:17;;;;;;;20.80;7.90;;;12.40;68.70;;;;;;6124608;29;20460;-75
2023/11/09 19:07:20;;;;;;;21.90;8.30;;;12.50;68.70;;;;;;6124840;29;20027;-74
2023/11/09 19:10:23;;;;;;;26.10;10.98;;;12.50;68.60;;;;;;6124408;29;20051;-74
2023/11/09 19:13:26;;;;;;;17.75;8.02;;;12.50;68.50;;;;;;6124161;29;20035;-75
2023/11/09 19:16:28;;;;;;;13.23;6.20;;;12.50;68.30;;;;;;6107020;29;20051;-75
2023/11/09 19:19:31;;;;;;;13.57;5.75;;;12.50;68.30;;;;;;6123831;29;20049;-74
2023/11/09 19:22:34;;;;;;;17.58;7.07;;;12.50;68.40;;;;;;6123149;29;20354;-74
2023/11/09 19:25:39;;;;;;;24.52;8.38;;;12.40;68.30;;;;;;6106191;29;20414;-74
2023/11/09 19:28:41;;;;;;;15.45;7.60;;;12.40;68.40;;;;;;6123305;29;20047;-74
2023/11/09 19:31:44;;;;;;;11.65;6.15;;;12.30;68.50;;;;;;6123552;29;20040;-75
2023/11/09 19:34:51;;;;;;;21.25;7.38;;;12.30;68.70;;;;;;6123232;29;20032;-74
2023/11/09 19:37:57;;;;;;;15.10;7.13;;;12.20;68.80;;;;;;6107112;29;20134;-74
2023/11/09 19:41:10;;;;;;;17.35;6.60;;;12.20;69.00;;;;;;6123365;29;20090;-73
2023/11/09 19:44:12;;;;;;;28.40;7.18;;;12.20;69.00;;;;;;6124310;29;20031;-74
2023/11/09 19:47:14;;;;;;;17.92;6.95;;;12.20;69.10;;;;;;6122930;29;20040;-74
2023/11/09 19:50:20;;;;;;;16.63;6.63;;;12.20;69.20;;;;;;6123112;29;20039;-73
2023/11/09 19:53:26;;;;;;;12.90;5.38;;;12.20;69.30;;;;;;6122673;29;20031;-74
2023/11/09 19:56:29;;;;;;;11.98;6.40;;;12.20;69.30;;;;;;6123746;29;20068;-74
2023/11/09 19:59:30;;;;;;;17.98;7.22;;;12.20;69.20;;;;;;6123378;29;20058;-74
2023/11/09 20:02:32;;;;;;;17.02;6.45;;;12.30;69.40;;;;;;6122949;29;20043;-72
2023/11/09 20:05:35;;;;;;;12.25;6.55;;;12.20;69.40;;;;;;6122823;29;20031;-74
2023/11/09 20:08:38;;;;;;;15.20;6.82;;;12.30;69.40;;;;;;6105915;29;20307;-75
2023/11/09 20:11:40;;;;;;;14.52;5.60;;;12.30;69.40;;;;;;6120874;29;20465;-74
2023/11/09 20:14:43;;;;;;;12.40;5.47;;;12.30;69.20;;;;;;6105698;29;20039;-74
2023/11/09 20:17:44;;;;;;;11.88;6.85;;;12.40;69.20;;;;;;6121876;29;20058;-74
2023/11/09 20:20:46;;;;;;;22.20;8.63;;;12.30;69.10;;;;;;6120554;29;20650;-72
2023/11/09 20:23:48;;;;;;;11.75;5.75;;;12.30;69.20;;;;;;6121748;29;20031;-74
2023/11/09 20:26:56;;;;;;;10.75;5.80;;;12.30;69.20;;;;;;6122202;29;20338;-75
2023/11/09 20:29:58;;;;;;;;;;;12.30;69.20;;;;;;6121334;29;20032;-75
2023/11/09 20:33:03;;;;;;;8.68;4.82;;;12.30;69.10;;;;;;6124152;29;20253;-74
2023/11/09 20:36:13;;;;;;;13.57;6.57;;;12.40;69.00;;;;;;6122106;29;20126;-73
2023/11/09 20:39:17;;;;;;;14.48;6.07;;;12.40;69.00;;;;;;6122240;29;20337;-75
2023/11/09 20:42:22;;;;;;;18.88;6.72;;;12.30;68.80;;;;;;6122052;29;20051;-73
2023/11/09 20:45:26;;;;;;;19.50;8.27;;;12.30;68.80;;;;;;6121297;29;20523;-73
2023/11/09 20:48:32;;;;;;;16.55;6.85;;;12.30;68.90;;;;;;6104237;29;20464;-73
2023/11/09 20:51:36;;;;;;;17.02;7.63;;;12.30;68.80;;;;;;6103830;29;20070;-73
2023/11/09 20:54:39;;;;;;;17.35;7.53;;;12.30;68.80;;;;;;6121460;29;20437;-75
2023/11/09 20:57:44;;;;;;;15.27;7.15;;;12.30;68.70;;;;;;6104500;29;20043;-75
2023/11/09 21:00:49;;;;;;;13.40;6.53;;;12.30;68.80;;;;;;6104640;29;20031;-74
2023/11/09 21:03:52;;;;;;;13.60;6.05;;;12.30;68.90;;;;;;6121516;29;20056;-74
2023/11/09 21:06:54;;;;;;;13.85;6.32;;;12.40;68.80;;;;;;6104358;29;20101;-75
2023/11/09 21:09:57;;;;;;;15.10;7.47;;;12.40;68.70;;;;;;6120795;29;20035;-74
2023/11/09 21:13:00;;;;;;;26.02;8.70;;;12.40;68.70;;;;;;6121087;29;20038;-74
2023/11/09 21:16:02;;;;;;;11.95;6.05;;;12.40;68.60;;;;;;6120940;29;20070;-74
2023/11/09 21:19:05;;;;;;;20.85;7.25;;;12.40;68.70;;;;;;6104136;29;20396;-76
2023/11/09 21:22:16;;;;;;;14.68;6.70;;;12.40;68.80;;;;;;6122901;29;20027;-74
2023/11/09 21:25:18;;;;;;;13.15;5.80;;;12.40;68.90;;;;;;6121394;29;20024;-75
2023/11/09 21:28:26;;;;;;;16.83;7.65;;;12.30;68.90;;;;;;6121267;29;20118;-74
2023/11/09 21:31:29;;;;;;;8.05;5.75;;;12.30;68.80;;;;;;6103662;29;20048;-74
2023/11/09 21:34:31;;;;;;;13.68;6.68;;;12.30;68.80;;;;;;6121305;29;20110;-74
2023/11/09 21:37:36;;;;;;;12.40;6.32;;;12.30;68.90;;;;;;6121063;29;20520;-75
2023/11/09 21:40:41;;;;;;;13.85;6.25;;;12.20;69.60;;;;;;6124181;29;20046;-76
2023/11/09 21:43:43;;;;;;;12.18;6.50;;;12.30;68.90;;;;;;6103889;29;20043;-75
2023/11/09 21:46:45;;;;;;;13.27;6.88;;;12.30;68.80;;;;;;6110153;29;20051;-74
2023/11/09 21:49:48;;;;;;;11.40;5.47;;;12.30;68.70;;;;;;6120674;29;20036;-75
2023/11/09 21:52:51;;;;;;;12.00;5.50;;;12.30;68.50;;;;;;6121694;29;20195;-74
2023/11/09 21:55:54;;;;;;;13.35;6.05;;;12.40;68.60;;;;;;6120760;29;20039;-74
2023/11/09 21:58:56;;;;;;;16.23;5.43;;;12.40;68.70;;;;;;6120367;29;20348;-75
2023/11/09 22:02:06;;;;;;;14.23;6.35;;;12.40;69.40;;;;;;6119062;29;20047;-74
2023/11/09 22:05:13;;;;;;;9.43;5.65;;;12.40;68.60;;;;;;6119535;29;20058;-74
2023/11/09 22:08:15;;;;;;;12.43;5.30;;;12.40;68.70;;;;;;6119260;29;20040;-73
2023/11/09 22:11:18;;;;;;;14.30;6.30;;;12.30;68.70;;;;;;6121838;29;20024;-73
2023/11/09 22:14:21;;;;;;;14.30;5.85;;;12.30;68.70;;;;;;6125318;29;20075;-75
2023/11/09 22:17:23;;;;;;;13.13;6.63;;;12.30;68.70;;;;;;6124810;29;20127;-72
2023/11/09 22:20:27;;;;;;;11.85;5.35;;;12.40;68.80;;;;;;6125132;29;20067;-74
2023/11/09 22:23:29;;;;;;;13.75;6.30;;;12.30;68.60;;;;;;6124573;29;20067;-74
2023/11/09 22:26:32;;;;;;;11.13;5.70;;;12.40;68.70;;;;;;6131351;29;20139;-74
2023/11/09 22:29:36;;;;;;;14.25;6.32;;;12.30;68.50;;;;;;6126988;29;20453;-75
2023/11/09 22:32:40;;;;;;;11.05;5.55;;;12.30;68.50;;;;;;6124294;29;20511;-74
2023/11/09 22:35:42;;;;;;;10.60;6.00;;;12.30;68.60;;;;;;6125489;29;20044;-74
2023/11/09 22:38:43;;;;;;;12.65;5.55;;;12.30;68.60;;;;;;6125059;29;20088;-73
2023/11/09 22:41:45;;;;;;;13.48;6.22;;;12.40;68.70;;;;;;6124550;29;20031;-74
2023/11/09 22:44:47;;;;;;;11.07;5.10;;;12.40;68.60;;;;;;6124198;29;20056;-74
2023/11/09 22:47:51;;;;;;;12.07;6.03;;;12.50;68.60;;;;;;6123877;29;20051;-73
2023/11/09 22:50:54;;;;;;;10.13;4.70;;;12.50;68.60;;;;;;6106631;29;20153;-74
2023/11/09 22:53:56;;;;;;;9.82;5.13;;;12.50;68.50;;;;;;6124116;29;20038;-74
2023/11/09 22:57:05;;;;;;;9.38;5.18;;;12.50;68.30;;;;;;6124135;29;20139;-74
2023/11/09 23:03:50;;;;;;;9.27;4.25;;;12.50;68.30;;;;;;6073910;29;20123;-74
2023/11/09 23:06:54;;;;;;;9.18;3.72;;;12.50;68.40;;;;;;6058476;29;20466;-73
2023/11/09 23:09:56;;;;;;;8.05;4.38;;;12.60;68.40;;;;;;6073405;29;20130;-73
2023/11/09 23:13:01;;;;;;;6.97;3.20;;;12.60;69.10;;;;;;6073243;29;20056;-74
2023/11/09 23:16:05;;;;;;;4.97;2.72;;;12.60;68.20;;;;;;6058690;29;20045;-73
2023/11/09 23:19:09;;;;;;;5.00;2.88;;;12.60;68.00;;;;;;6073457;29;20048;-74
2023/11/09 23:22:10;;;;;;;6.07;3.70;;;12.70;68.00;;;;;;6056384;29;20037;-74
2023/11/09 23:25:12;;;;;;;6.22;2.90;;;12.70;67.80;;;;;;6057799;29;20113;-72
2023/11/09 23:28:15;;;;;;;11.20;2.78;;;12.70;67.60;;;;;;6073155;29;20060;-74
2023/11/09 23:31:17;;;;;;;5.70;2.88;;;12.80;67.60;;;;;;6057205;29;20138;-73
2023/11/09 23:34:20;;;;;;;8.18;3.28;;;12.80;67.50;;;;;;6074851;29;20036;-74
2023/11/09 23:37:23;;;;;;;4.15;3.08;;;12.80;67.20;;;;;;6096155;29;20090;-73
2023/11/09 23:40:26;;;;;;;6.10;3.30;;;12.90;67.10;;;;;;6122296;29;20507;-73
2023/11/09 23:43:29;;;;;;;6.32;3.45;;;12.80;66.90;;;;;;6122735;29;20365;-74
2023/11/09 23:46:31;;;;;;;5.65;3.08;;;12.90;66.80;;;;;;6122498;29;20764;-73
2023/11/09 23:49:34;;;;;;;7.93;3.70;;;12.90;66.70;;;;;;6120775;29;20095;-74
2023/11/09 23:52:38;;;;;;;5.10;2.90;;;12.90;66.60;;;;;;6122326;29;20036;-72
2023/11/09 23:55:41;;;;;;;6.68;3.88;;;13.00;66.60;;;;;;6121475;29;20374;-74
2023/11/09 23:58:45;;;;;;;7.68;3.45;;;13.00;66.40;;;;;;6122466;29;20035;-73
